sensor_id;sensor_type;location;lat;lon;timestamp;P1;durP1;ratioP1;P2;durP2;ratioP2
14799;SDS011;7491;57.750;11.970;2024-01-06T03:01:59;3.07;;;1.90;;
14799;SDS011;7491;57.750;11.970;2024-01-06T03:07:58;3.73;;;2.27;;
14799;SDS011;7491;57.750;11.970;2024-01-06T03:12:10;1.73;;;1.43;;
14799;SDS011;7491;57.750;11.970;2024-01-06T03:14:51;3.30;;;2.00;;
14799;SDS011;7491;57.750;11.970;2024-01-06T03:21:18;2.93;;;1.87;;
14799;SDS011;7491;57.750;11.970;2024-01-06T03:24:12;3.03;;;2.60;;
14799;SDS011;7491;57.750;11.970;2024-01-06T10:50:59;8.90;;;5.23;;
14799;SDS011;7491;57.750;11.970;2024-01-06T10:57:55;48.13;;;43.42;;
14799;SDS011;7491;57.750;11.970;2024-01-06T11:00:59;6.23;;;3.37;;
14799;SDS011;7491;57.750;11.970;2024-01-06T11:04:09;3.30;;;2.47;;
14799;SDS011;7491;57.750;11.970;2024-01-06T11:06:42;4.70;;;2.77;;
14799;SDS011;7491;57.750;11.970;2024-01-06T11:09:24;3.07;;;2.37;;
14799;SDS011;7491;57.750;11.970;2024-01-06T11:11:58;5.00;;;3.47;;
14799;SDS011;7491;57.750;11.970;2024-01-06T11:14:26;8.37;;;2.90;;
14799;SDS011;7491;57.750;11.970;2024-01-06T11:16:54;4.40;;;3.37;;
14799;SDS011;7491;57.750;11.970;2024-01-06T11:22:25;6.17;;;3.70;;
14799;SDS011;7491;57.750;11.970;2024-01-06T11:24:54;5.70;;;2.70;;
14799;SDS011;7491;57.750;11.970;2024-01-06T11:27:23;6.30;;;2.73;;
14799;SDS011;7491;57.750;11.970;2024-01-06T11:29:51;5.50;;;3.07;;
14799;SDS011;7491;57.750;11.970;2024-01-06T11:32:19;4.93;;;3.17;;
14799;SDS011;7491;57.750;11.970;2024-01-06T11:34:51;3.53;;;2.50;;
14799;SDS011;7491;57.750;11.970;2024-01-06T11:37:20;3.80;;;2.83;;
14799;SDS011;7491;57.750;11.970;2024-01-06T11:39:51;6.77;;;3.60;;
14799;SDS011;7491;57.750;11.970;2024-01-06T11:42:19;6.00;;;2.87;;
14799;SDS011;7491;57.750;11.970;2024-01-06T11:44:49;5.37;;;2.37;;
14799;SDS011;7491;57.750;11.970;2024-01-06T11:47:16;4.80;;;2.83;;
14799;SDS011;7491;57.750;11.970;2024-01-06T11:49:48;3.87;;;2.50;;
14799;SDS011;7491;57.750;11.970;2024-01-06T11:52:21;6.55;;;4.55;;
14799;SDS011;7491;57.750;11.970;2024-01-06T11:54:49;5.43;;;3.57;;
14799;SDS011;7491;57.750;11.970;2024-01-06T11:57:18;3.27;;;2.70;;
14799;SDS011;7491;57.750;11.970;2024-01-06T11:59:44;3.63;;;2.50;;
14799;SDS011;7491;57.750;11.970;2024-01-06T12:02:11;4.03;;;2.57;;
14799;SDS011;7491;57.750;11.970;2024-01-06T12:04:38;4.60;;;2.63;;
14799;SDS011;7491;57.750;11.970;2024-01-06T12:07:06;6.87;;;3.03;;
14799;SDS011;7491;57.750;11.970;2024-01-06T12:09:33;4.33;;;2.90;;
14799;SDS011;7491;57.750;11.970;2024-01-06T12:12:02;7.93;;;3.53;;
14799;SDS011;7491;57.750;11.970;2024-01-06T12:14:30;2.93;;;2.03;;
14799;SDS011;7491;57.750;11.970;2024-01-06T12:16:58;4.33;;;2.93;;
14799;SDS011;7491;57.750;11.970;2024-01-06T12:19:27;3.07;;;2.30;;
14799;SDS011;7491;57.750;11.970;2024-01-06T12:21:55;3.90;;;2.57;;
14799;SDS011;7491;57.750;11.970;2024-01-06T12:24:22;3.80;;;2.40;;
14799;SDS011;7491;57.750;11.970;2024-01-06T12:26:48;4.27;;;2.60;;
14799;SDS011;7491;57.750;11.970;2024-01-06T12:29:17;3.67;;;2.43;;
14799;SDS011;7491;57.750;11.970;2024-01-06T12:31:46;4.27;;;2.70;;
14799;SDS011;7491;57.750;11.970;2024-01-06T12:34:13;3.50;;;2.50;;
14799;SDS011;7491;57.750;11.970;2024-01-06T12:36:40;4.40;;;2.45;;
14799;SDS011;7491;57.750;11.970;2024-01-06T12:39:10;3.23;;;2.23;;
14799;SDS011;7491;57.750;11.970;2024-01-06T12:41:38;3.00;;;2.10;;
14799;SDS011;7491;57.750;11.970;2024-01-06T12:44:06;4.23;;;2.27;;
14799;SDS011;7491;57.750;11.970;2024-01-06T12:46:35;4.07;;;2.57;;
14799;SDS011;7491;57.750;11.970;2024-01-06T12:49:02;3.80;;;2.50;;
14799;SDS011;7491;57.750;11.970;2024-01-06T12:51:29;3.10;;;2.47;;
14799;SDS011;7491;57.750;11.970;2024-01-06T12:53:55;3.73;;;2.37;;
14799;SDS011;7491;57.750;11.970;2024-01-06T12:56:22;4.53;;;2.70;;
14799;SDS011;7491;57.750;11.970;2024-01-06T12:58:49;3.43;;;3.03;;
14799;SDS011;7491;57.750;11.970;2024-01-06T13:01:15;5.47;;;4.13;;
14799;SDS011;7491;57.750;11.970;2024-01-06T13:03:44;9.57;;;5.67;;
14799;SDS011;7491;57.750;11.970;2024-01-06T13:06:11;15.03;;;12.77;;
14799;SDS011;7491;57.750;11.970;2024-01-06T13:08:38;11.03;;;8.43;;
14799;SDS011;7491;57.750;11.970;2024-01-06T13:11:05;5.07;;;3.20;;
14799;SDS011;7491;57.750;11.970;2024-01-06T13:13:32;2.53;;;2.30;;
14799;SDS011;7491;57.750;11.970;2024-01-06T13:15:59;4.00;;;2.73;;
14799;SDS011;7491;57.750;11.970;2024-01-06T13:18:26;4.93;;;2.80;;
14799;SDS011;7491;57.750;11.970;2024-01-06T13:20:54;4.60;;;2.63;;
14799;SDS011;7491;57.750;11.970;2024-01-06T13:23:21;3.13;;;2.50;;
14799;SDS011;7491;57.750;11.970;2024-01-06T13:25:48;5.37;;;2.50;;
14799;SDS011;7491;57.750;11.970;2024-01-06T13:28:14;4.43;;;2.90;;
14799;SDS011;7491;57.750;11.970;2024-01-06T13:30:42;4.60;;;2.93;;
14799;SDS011;7491;57.750;11.970;2024-01-06T13:33:09;3.17;;;2.37;;
14799;SDS011;7491;57.750;11.970;2024-01-06T13:35:35;3.70;;;2.53;;
14799;SDS011;7491;57.750;11.970;2024-01-06T13:38:04;3.77;;;2.40;;
14799;SDS011;7491;57.750;11.970;2024-01-06T13:40:30;4.03;;;2.23;;
14799;SDS011;7491;57.750;11.970;2024-01-06T13:42:57;5.17;;;3.00;;
14799;SDS011;7491;57.750;11.970;2024-01-06T13:45:24;3.30;;;2.67;;
14799;SDS011;7491;57.750;11.970;2024-01-06T13:47:51;3.67;;;2.53;;
14799;SDS011;7491;57.750;11.970;2024-01-06T13:50:18;5.23;;;3.30;;
14799;SDS011;7491;57.750;11.970;2024-01-06T13:52:45;4.80;;;2.37;;
14799;SDS011;7491;57.750;11.970;2024-01-06T13:55:14;6.87;;;2.43;;
14799;SDS011;7491;57.750;11.970;2024-01-06T13:57:41;3.57;;;2.47;;
14799;SDS011;7491;57.750;11.970;2024-01-06T14:00:08;8.23;;;4.60;;
14799;SDS011;7491;57.750;11.970;2024-01-06T14:02:35;4.70;;;2.70;;
14799;SDS011;7491;57.750;11.970;2024-01-06T14:05:03;4.73;;;3.00;;
14799;SDS011;7491;57.750;11.970;2024-01-06T14:07:33;4.67;;;3.13;;
14799;SDS011;7491;57.750;11.970;2024-01-06T14:10:00;118.13;;;45.67;;
14799;SDS011;7491;57.750;11.970;2024-01-06T14:12:30;10.03;;;5.50;;
14799;SDS011;7491;57.750;11.970;2024-01-06T14:14:58;11.43;;;6.23;;
14799;SDS011;7491;57.750;11.970;2024-01-06T14:17:26;12.53;;;5.83;;
14799;SDS011;7491;57.750;11.970;2024-01-06T14:19:53;4.93;;;3.53;;
14799;SDS011;7491;57.750;11.970;2024-01-06T14:22:19;3.57;;;3.10;;
14799;SDS011;7491;57.750;11.970;2024-01-06T14:24:46;3.90;;;3.30;;
14799;SDS011;7491;57.750;11.970;2024-01-06T14:27:13;4.43;;;3.20;;
14799;SDS011;7491;57.750;11.970;2024-01-06T14:29:41;6.20;;;3.70;;
14799;SDS011;7491;57.750;11.970;2024-01-06T14:32:07;3.97;;;2.77;;
14799;SDS011;7491;57.750;11.970;2024-01-06T14:34:34;5.40;;;3.40;;
14799;SDS011;7491;57.750;11.970;2024-01-06T14:37:01;4.03;;;2.90;;
14799;SDS011;7491;57.750;11.970;2024-01-06T14:39:28;8.10;;;3.10;;
14799;SDS011;7491;57.750;11.970;2024-01-06T14:41:55;6.13;;;3.03;;
14799;SDS011;7491;57.750;11.970;2024-01-06T14:44:21;5.07;;;3.23;;
14799;SDS011;7491;57.750;11.970;2024-01-06T14:46:50;5.53;;;2.67;;
14799;SDS011;7491;57.750;11.970;2024-01-06T14:49:18;4.80;;;2.77;;
14799;SDS011;7491;57.750;11.970;2024-01-06T14:51:44;4.23;;;2.93;;
14799;SDS011;7491;57.750;11.970;2024-01-06T14:54:11;4.27;;;3.10;;
14799;SDS011;7491;57.750;11.970;2024-01-06T14:56:38;5.03;;;2.40;;
14799;SDS011;7491;57.750;11.970;2024-01-06T14:59:04;6.82;;;4.25;;
14799;SDS011;7491;57.750;11.970;2024-01-06T15:01:32;5.93;;;3.53;;
14799;SDS011;7491;57.750;11.970;2024-01-06T15:04:00;4.23;;;3.07;;
14799;SDS011;7491;57.750;11.970;2024-01-06T15:06:26;3.93;;;3.07;;
14799;SDS011;7491;57.750;11.970;2024-01-06T15:08:53;7.50;;;3.80;;
14799;SDS011;7491;57.750;11.970;2024-01-06T15:11:20;4.60;;;3.80;;
14799;SDS011;7491;57.750;11.970;2024-01-06T15:13:46;5.77;;;3.87;;
14799;SDS011;7491;57.750;11.970;2024-01-06T15:16:13;10.20;;;3.10;;
14799;SDS011;7491;57.750;11.970;2024-01-06T15:18:39;5.30;;;3.47;;
14799;SDS011;7491;57.750;11.970;2024-01-06T15:21:07;6.20;;;3.63;;
14799;SDS011;7491;57.750;11.970;2024-01-06T15:23:34;5.80;;;3.07;;
14799;SDS011;7491;57.750;11.970;2024-01-06T15:26:01;5.33;;;3.47;;
14799;SDS011;7491;57.750;11.970;2024-01-06T15:28:28;4.13;;;3.17;;
14799;SDS011;7491;57.750;11.970;2024-01-06T15:30:55;5.50;;;3.47;;
14799;SDS011;7491;57.750;11.970;2024-01-06T15:33:22;8.30;;;3.57;;
14799;SDS011;7491;57.750;11.970;2024-01-06T15:35:49;5.97;;;3.57;;
14799;SDS011;7491;57.750;11.970;2024-01-06T15:38:19;6.43;;;3.80;;
14799;SDS011;7491;57.750;11.970;2024-01-06T15:40:46;4.53;;;3.00;;
14799;SDS011;7491;57.750;11.970;2024-01-06T15:43:13;4.80;;;3.50;;
14799;SDS011;7491;57.750;11.970;2024-01-06T15:45:40;5.27;;;3.87;;
14799;SDS011;7491;57.750;11.970;2024-01-06T15:48:07;7.30;;;3.40;;
14799;SDS011;7491;57.750;11.970;2024-01-06T15:50:34;14.27;;;9.20;;
14799;SDS011;7491;57.750;11.970;2024-01-06T15:53:01;16.65;;;11.07;;
14799;SDS011;7491;57.750;11.970;2024-01-06T15:55:29;13.73;;;8.80;;
14799;SDS011;7491;57.750;11.970;2024-01-06T15:57:55;8.77;;;4.67;;
14799;SDS011;7491;57.750;11.970;2024-01-06T16:00:22;33.07;;;16.90;;
14799;SDS011;7491;57.750;11.970;2024-01-06T16:02:49;77.77;;;28.77;;
14799;SDS011;7491;57.750;11.970;2024-01-06T16:05:16;114.27;;;32.77;;
14799;SDS011;7491;57.750;11.970;2024-01-06T16:07:43;137.17;;;39.00;;
14799;SDS011;7491;57.750;11.970;2024-01-06T16:10:10;76.93;;;25.10;;
14799;SDS011;7491;57.750;11.970;2024-01-06T16:12:39;91.83;;;31.80;;
14799;SDS011;7491;57.750;11.970;2024-01-06T16:15:07;85.10;;;31.67;;
14799;SDS011;7491;57.750;11.970;2024-01-06T16:17:34;31.20;;;14.47;;
14799;SDS011;7491;57.750;11.970;2024-01-06T16:20:02;14.70;;;7.93;;
14799;SDS011;7491;57.750;11.970;2024-01-06T16:22:29;15.20;;;8.03;;
14799;SDS011;7491;57.750;11.970;2024-01-06T16:24:55;12.10;;;7.30;;
14799;SDS011;7491;57.750;11.970;2024-01-06T16:27:22;11.40;;;7.53;;
14799;SDS011;7491;57.750;11.970;2024-01-06T16:29:50;11.03;;;6.47;;
14799;SDS011;7491;57.750;11.970;2024-01-06T16:32:17;12.03;;;6.90;;
14799;SDS011;7491;57.750;11.970;2024-01-06T16:34:44;16.13;;;8.77;;
14799;SDS011;7491;57.750;11.970;2024-01-06T16:37:12;10.67;;;6.90;;
14799;SDS011;7491;57.750;11.970;2024-01-06T16:39:39;13.37;;;8.20;;
14799;SDS011;7491;57.750;11.970;2024-01-06T16:42:05;15.37;;;8.40;;
14799;SDS011;7491;57.750;11.970;2024-01-06T16:44:33;14.57;;;8.37;;
14799;SDS011;7491;57.750;11.970;2024-01-06T16:47:01;18.20;;;9.93;;
14799;SDS011;7491;57.750;11.970;2024-01-06T16:49:28;12.73;;;7.43;;
14799;SDS011;7491;57.750;11.970;2024-01-06T16:51:57;13.77;;;6.67;;
14799;SDS011;7491;57.750;11.970;2024-01-06T16:54:24;12.33;;;7.97;;
14799;SDS011;7491;57.750;11.970;2024-01-06T16:56:51;10.70;;;5.53;;
14799;SDS011;7491;57.750;11.970;2024-01-06T16:59:18;31.43;;;14.77;;
14799;SDS011;7491;57.750;11.970;2024-01-06T17:01:46;46.67;;;18.13;;
14799;SDS011;7491;57.750;11.970;2024-01-06T17:04:14;42.00;;;16.67;;
14799;SDS011;7491;57.750;11.970;2024-01-06T17:06:41;91.67;;;33.77;;
14799;SDS011;7491;57.750;11.970;2024-01-06T17:09:11;71.27;;;25.50;;
14799;SDS011;7491;57.750;11.970;2024-01-06T17:11:38;110.67;;;35.73;;
14799;SDS011;7491;57.750;11.970;2024-01-06T17:14:05;95.13;;;32.40;;
14799;SDS011;7491;57.750;11.970;2024-01-06T17:16:32;23.07;;;10.23;;
14799;SDS011;7491;57.750;11.970;2024-01-06T17:19:16;24.13;;;13.47;;
14799;SDS011;7491;57.750;11.970;2024-01-06T17:22:35;11.73;;;7.47;;
14799;SDS011;7491;57.750;11.970;2024-01-06T17:29:35;14.97;;;8.03;;
14799;SDS011;7491;57.750;11.970;2024-01-06T17:32:26;14.33;;;8.40;;
14799;SDS011;7491;57.750;11.970;2024-01-06T17:35:44;11.80;;;6.37;;
14799;SDS011;7491;57.750;11.970;2024-01-06T17:41:52;10.07;;;5.77;;
14799;SDS011;7491;57.750;11.970;2024-01-06T17:45:00;15.87;;;9.23;;
14799;SDS011;7491;57.750;11.970;2024-01-06T17:47:50;8.53;;;5.97;;
14799;SDS011;7491;57.750;11.970;2024-01-06T17:50:25;6.07;;;4.07;;
14799;SDS011;7491;57.750;11.970;2024-01-06T17:53:20;8.63;;;5.10;;
14799;SDS011;7491;57.750;11.970;2024-01-06T17:56:30;171.80;;;49.37;;
14799;SDS011;7491;57.750;11.970;2024-01-06T18:01:55;56.87;;;19.73;;
14799;SDS011;7491;57.750;11.970;2024-01-06T18:26:56;13.23;;;7.57;;
14799;SDS011;7491;57.750;11.970;2024-01-06T18:29:27;8.30;;;5.07;;
14799;SDS011;7491;57.750;11.970;2024-01-06T18:32:59;13.80;;;6.53;;
14799;SDS011;7491;57.750;11.970;2024-01-06T18:39:34;7.07;;;4.63;;
14799;SDS011;7491;57.750;11.970;2024-01-06T18:42:40;3.63;;;3.13;;
14799;SDS011;7491;57.750;11.970;2024-01-06T19:24:23;14.83;;;7.10;;
14799;SDS011;7491;57.750;11.970;2024-01-06T19:51:08;11.80;;;6.87;;
14799;SDS011;7491;57.750;11.970;2024-01-06T19:54:23;4.40;;;2.20;;
14799;SDS011;7491;57.750;11.970;2024-01-06T19:57:24;5.83;;;2.27;;
14799;SDS011;7491;57.750;11.970;2024-01-06T20:11:17;3.47;;;2.80;;
14799;SDS011;7491;57.750;11.970;2024-01-06T20:41:19;8.23;;;4.97;;
14799;SDS011;7491;57.750;11.970;2024-01-06T21:05:02;6.93;;;4.60;;
14799;SDS011;7491;57.750;11.970;2024-01-06T21:23:15;5.63;;;3.17;;
14799;SDS011;7491;57.750;11.970;2024-01-06T21:29:10;6.30;;;3.50;;
14799;SDS011;7491;57.750;11.970;2024-01-06T21:35:55;3.17;;;2.50;;
14799;SDS011;7491;57.750;11.970;2024-01-06T22:03:49;3.37;;;3.03;;
14799;SDS011;7491;57.750;11.970;2024-01-06T22:07:08;5.33;;;3.40;;
14799;SDS011;7491;57.750;11.970;2024-01-06T22:28:32;2.60;;;2.40;;
14799;SDS011;7491;57.750;11.970;2024-01-06T22:38:17;5.67;;;3.77;;
14799;SDS011;7491;57.750;11.970;2024-01-06T22:58:51;6.17;;;3.57;;
14799;SDS011;7491;57.750;11.970;2024-01-06T23:01:51;5.13;;;3.70;;
14799;SDS011;7491;57.750;11.970;2024-01-06T23:08:11;6.33;;;3.40;;
14799;SDS011;7491;57.750;11.970;2024-01-06T23:10:49;2.57;;;2.00;;
14799;SDS011;7491;57.750;11.970;2024-01-06T23:17:09;5.13;;;3.47;;
14799;SDS011;7491;57.750;11.970;2024-01-06T23:20:19;5.27;;;3.20;;
